createdAt,value
2019-05-02T00:01:22.504Z,30.60
2019-05-02T00:03:53.488Z,30.60
2019-05-02T00:06:24.973Z,30.60
2019-05-02T00:08:56.091Z,30.70
2019-05-02T00:11:28.417Z,30.70
2019-05-02T00:13:59.810Z,30.80
2019-05-02T00:16:32.488Z,30.80
2019-05-02T00:19:08.975Z,30.80
2019-05-02T00:21:40.753Z,30.90
2019-05-02T00:24:11.681Z,31.00
2019-05-02T00:26:48.911Z,31.00
2019-05-02T00:29:18.938Z,31.10
2019-05-02T00:31:52.094Z,31.20
2019-05-02T00:34:24.600Z,31.30
2019-05-02T00:36:55.719Z,31.30
2019-05-02T00:39:26.794Z,31.40
2019-05-02T00:45:32.037Z,31.50
2019-05-02T00:48:33.780Z,31.60
2019-05-02T00:51:04.968Z,31.70
2019-05-02T00:53:37.017Z,31.80
2019-05-02T00:56:09.114Z,31.90
2019-05-02T00:58:40.502Z,32.00
2019-05-02T01:01:13.217Z,32.00
2019-05-02T01:03:47.234Z,32.10
2019-05-02T01:06:18.288Z,32.20
2019-05-02T01:08:50.512Z,32.30
2019-05-02T01:11:23.080Z,32.30
2019-05-02T01:13:55.688Z,32.40
2019-05-02T01:16:27.982Z,32.50
2019-05-02T01:18:59.240Z,32.60
2019-05-02T01:21:33.996Z,32.70
2019-05-02T01:24:03.236Z,32.80
2019-05-02T01:26:37.576Z,32.90
2019-05-02T01:29:11.191Z,33.00
2019-05-02T01:31:43.528Z,33.10
2019-05-02T01:34:18.060Z,33.10
2019-05-02T01:36:51.163Z,33.20
2019-05-02T01:39:22.551Z,33.20
2019-05-02T01:41:54.531Z,33.30
2019-05-02T01:44:31.184Z,33.40
2019-05-02T01:47:01.955Z,33.40
2019-05-02T01:49:32.976Z,33.40
2019-05-02T01:52:04.659Z,33.50
2019-05-02T01:54:36.155Z,33.60
2019-05-02T01:57:16.224Z,33.60
2019-05-02T01:59:49.334Z,33.70
2019-05-02T02:02:19.916Z,33.80
2019-05-02T02:04:52.092Z,33.90
2019-05-02T02:07:24.251Z,33.90
2019-05-02T02:09:57.125Z,34.00
2019-05-02T02:12:27.520Z,34.10
2019-05-02T02:14:58.936Z,34.10
2019-05-02T02:17:36.893Z,34.10
2019-05-02T02:20:14.089Z,34.20
2019-05-02T02:22:46.091Z,34.20
2019-05-02T02:25:21.444Z,34.30
2019-05-02T02:27:54.995Z,34.40
2019-05-02T02:30:31.258Z,34.40
2019-05-02T02:33:07.370Z,34.50
2019-05-02T02:38:27.023Z,34.70
2019-05-02T02:40:59.508Z,34.80
2019-05-02T02:43:35.547Z,34.80
2019-05-02T02:46:10.926Z,34.90
2019-05-02T02:48:42.819Z,34.90
2019-05-02T02:51:22.180Z,34.90
2019-05-02T02:53:46.775Z,35.00
2019-05-02T02:56:20.725Z,35.10
2019-05-02T02:58:52.330Z,35.10
2019-05-02T03:04:13.349Z,35.30
2019-05-02T03:06:53.439Z,35.30
2019-05-02T03:09:26.619Z,35.40
2019-05-02T03:12:02.232Z,35.40
2019-05-02T03:14:40.985Z,35.50
2019-05-02T03:17:19.997Z,35.60
2019-05-02T03:19:47.502Z,35.60
2019-05-02T03:22:19.035Z,35.70
2019-05-02T03:24:50.827Z,35.80
2019-05-02T03:27:22.163Z,35.90
2019-05-02T03:29:53.562Z,36.00
2019-05-02T03:32:33.278Z,36.10
2019-05-02T03:35:00.512Z,36.20
2019-05-02T03:37:35.271Z,36.30
2019-05-02T03:40:09.695Z,36.40
2019-05-02T03:42:44.573Z,36.40
2019-05-02T03:45:16.042Z,36.50
2019-05-02T03:47:47.522Z,36.40
2019-05-02T03:50:31.053Z,36.40
2019-05-02T03:52:53.043Z,36.50
2019-05-02T03:55:31.334Z,36.50
2019-05-02T03:58:00.333Z,36.50
2019-05-02T04:00:33.596Z,36.60
2019-05-02T04:03:05.073Z,36.70
2019-05-02T04:05:40.552Z,36.70
2019-05-02T04:14:15.917Z,36.70
2019-05-02T04:16:48.663Z,36.70
2019-05-02T04:19:17.527Z,36.80
2019-05-02T04:21:54.873Z,36.80
2019-05-02T04:24:25.134Z,36.80
2019-05-02T04:27:06.219Z,36.80
2019-05-02T04:29:51.597Z,36.80
2019-05-02T04:32:22.507Z,36.90
2019-05-02T04:34:58.223Z,37.00
2019-05-02T04:37:34.388Z,37.00
2019-05-02T04:40:03.989Z,37.10
2019-05-02T04:42:40.922Z,37.20
2019-05-02T04:45:25.087Z,37.30
2019-05-02T04:47:54.878Z,37.40
2019-05-02T04:50:25.301Z,37.50
2019-05-02T04:52:53.813Z,37.60
2019-05-02T04:55:32.395Z,37.70
2019-05-02T04:58:01.761Z,37.70
2019-05-02T05:00:35.235Z,37.70
2019-05-02T05:03:15.503Z,37.70
2019-05-02T05:05:48.195Z,37.80
2019-05-02T05:08:26.618Z,37.70
2019-05-02T05:10:52.149Z,37.70
2019-05-02T05:13:26.164Z,37.70
2019-05-02T05:16:03.003Z,37.70
2019-05-02T05:18:32.024Z,37.80
2019-05-02T05:21:24.706Z,37.80
2019-05-02T05:23:59.594Z,37.90
2019-05-02T05:26:42.754Z,38.00
2019-05-02T05:29:13.971Z,38.10
2019-05-02T05:31:43.114Z,38.20
2019-05-02T05:34:14.287Z,38.20
2019-05-02T05:36:48.172Z,38.30
2019-05-02T05:39:21.400Z,38.30
2019-05-02T05:41:52.525Z,38.40
2019-05-02T05:44:27.339Z,38.40
2019-05-02T05:47:00.242Z,38.40
2019-05-02T05:49:31.069Z,38.50
2019-05-02T05:52:08.704Z,38.60
2019-05-02T05:54:41.982Z,38.60
2019-05-02T05:57:12.179Z,38.70
2019-05-02T05:59:44.345Z,38.80
2019-05-02T06:02:18.546Z,38.80
2019-05-02T06:04:50.282Z,38.80
2019-05-02T06:07:21.319Z,38.80
2019-05-02T06:09:52.604Z,38.80
2019-05-02T06:12:26.034Z,38.80
2019-05-02T06:15:01.782Z,38.70
2019-05-02T06:17:32.891Z,38.70
2019-05-02T06:20:07.432Z,38.60
2019-05-02T06:22:38.812Z,38.60
2019-05-02T06:25:15.589Z,38.50
2019-05-02T06:27:48.296Z,38.50
2019-05-02T06:30:21.675Z,38.50
2019-05-02T06:32:56.640Z,38.50
2019-05-02T06:35:27.850Z,38.50
2019-05-02T06:38:00.063Z,38.40
2019-05-02T06:40:30.992Z,38.30
2019-05-02T06:43:09.660Z,38.20
2019-05-02T06:45:41.677Z,38.10
2019-05-02T06:48:16.857Z,38.10
2019-05-02T06:50:45.953Z,38.10
2019-05-02T06:53:23.974Z,38.10
2019-05-02T06:55:55.358Z,38.20
2019-05-02T06:58:26.598Z,38.30
2019-05-02T07:00:59.955Z,38.50
2019-05-02T07:03:31.974Z,38.60
2019-05-02T07:06:07.667Z,38.70
2019-05-02T07:08:42.541Z,38.70
2019-05-02T07:11:13.700Z,38.80
2019-05-02T07:13:44.582Z,38.80
2019-05-02T07:16:36.877Z,38.90
2019-05-02T07:18:58.406Z,38.90
2019-05-02T07:21:29.452Z,39.00
2019-05-02T07:24:00.391Z,39.00
2019-05-02T07:26:33.153Z,39.10
2019-05-02T07:29:06.881Z,39.10
2019-05-02T07:31:42.921Z,39.10
2019-05-02T07:34:16.427Z,39.20
2019-05-02T07:36:50.862Z,39.30
2019-05-02T07:39:22.172Z,39.30
2019-05-02T07:41:53.407Z,39.30
2019-05-02T07:44:27.180Z,39.40
2019-05-02T07:47:02.738Z,39.40
2019-05-02T07:49:34.298Z,39.40
2019-05-02T07:52:08.381Z,39.40
2019-05-02T07:54:39.350Z,39.40
2019-05-02T07:57:15.010Z,39.50
2019-05-02T08:00:00.681Z,39.50
2019-05-02T08:02:31.532Z,39.50
2019-05-02T08:05:21.839Z,39.50
2019-05-02T08:07:53.385Z,39.50
2019-05-02T08:10:26.422Z,39.50
2019-05-02T08:12:57.756Z,39.50
2019-05-02T08:15:29.178Z,39.50
2019-05-02T08:18:00.284Z,39.50
2019-05-02T08:20:31.265Z,39.50
2019-05-02T08:23:05.036Z,39.50
2019-05-02T08:25:41.423Z,39.60
2019-05-02T08:28:16.025Z,39.50
2019-05-02T08:30:45.878Z,39.50
2019-05-02T08:33:19.401Z,39.50
2019-05-02T08:35:52.521Z,39.50
2019-05-02T08:38:23.671Z,39.50
2019-05-02T08:41:03.766Z,39.50
2019-05-02T08:43:34.826Z,39.50
2019-05-02T08:46:09.488Z,39.50
2019-05-02T08:48:41.757Z,39.50
2019-05-02T08:51:14.068Z,39.50
2019-05-02T08:53:52.043Z,39.50
2019-05-02T08:56:28.226Z,39.40
2019-05-02T08:59:00.138Z,39.40
2019-05-02T09:01:35.179Z,39.40
2019-05-02T09:04:06.515Z,39.40
2019-05-02T09:06:37.731Z,39.40
2019-05-02T09:09:10.412Z,39.40
2019-05-02T09:11:43.852Z,39.40
2019-05-02T09:14:14.529Z,39.40
2019-05-02T09:16:45.484Z,39.30
2019-05-02T09:19:21.438Z,39.30
2019-05-02T09:21:48.969Z,39.20
2019-05-02T09:24:24.829Z,39.20
2019-05-02T09:26:56.135Z,39.10
2019-05-02T09:29:27.073Z,39.10
2019-05-02T09:31:57.988Z,39.10
2019-05-02T09:34:31.854Z,39.10
2019-05-02T09:37:02.849Z,39.10
2019-05-02T09:39:36.492Z,39.10
2019-05-02T09:42:12.396Z,39.20
2019-05-02T09:44:42.573Z,39.10
2019-05-02T09:47:15.119Z,39.20
2019-05-02T09:49:49.132Z,39.10
2019-05-02T09:52:19.969Z,39.10
2019-05-02T09:54:51.876Z,39.00
2019-05-02T09:57:22.887Z,39.00
2019-05-02T09:59:55.717Z,38.90
2019-05-02T10:02:27.323Z,39.00
2019-05-02T10:05:07.073Z,38.90
2019-05-02T10:07:38.575Z,38.90
2019-05-02T10:10:12.578Z,38.80
2019-05-02T10:12:43.488Z,38.80
2019-05-02T10:15:16.661Z,38.70
2019-05-02T10:17:48.127Z,38.70
2019-05-02T10:20:23.485Z,38.60
2019-05-02T10:22:52.951Z,38.60
2019-05-02T10:25:24.013Z,38.50
2019-05-02T10:27:57.960Z,38.50
2019-05-02T10:30:33.647Z,38.40
2019-05-02T10:33:03.439Z,38.40
2019-05-02T10:35:40.536Z,38.30
2019-05-02T10:38:13.794Z,38.30
2019-05-02T10:40:42.442Z,38.30
2019-05-02T10:43:13.645Z,38.30
2019-05-02T10:45:47.305Z,38.20
2019-05-02T10:48:27.427Z,38.10
2019-05-02T10:50:53.491Z,38.10
2019-05-02T10:53:24.723Z,38.00
2019-05-02T10:55:56.726Z,37.90
2019-05-02T10:58:31.969Z,37.90
2019-05-02T11:01:02.111Z,37.90
2019-05-02T11:03:38.204Z,37.80
2019-05-02T11:06:08.216Z,37.80
2019-05-02T11:08:42.222Z,37.70
2019-05-02T11:11:13.813Z,37.70
2019-05-02T11:13:46.798Z,37.60
2019-05-02T11:16:21.566Z,37.60
2019-05-02T11:18:53.187Z,37.60
2019-05-02T11:21:25.230Z,37.60
2019-05-02T11:23:56.695Z,37.50
2019-05-02T11:26:27.998Z,37.50
2019-05-02T11:28:58.998Z,37.40
2019-05-02T11:31:30.001Z,37.40
2019-05-02T11:34:01.902Z,37.30
2019-05-02T11:36:33.129Z,37.30
2019-05-02T11:39:17.229Z,37.20
2019-05-02T11:41:42.252Z,37.20
2019-05-02T11:44:13.146Z,37.20
2019-05-02T11:46:46.927Z,37.10
2019-05-02T11:49:17.279Z,37.10
2019-05-02T11:51:52.653Z,37.10
2019-05-02T11:54:22.703Z,37.10
2019-05-02T11:56:54.011Z,37.00
2019-05-02T11:59:28.207Z,37.00
2019-05-02T12:02:00.107Z,37.00
2019-05-02T12:04:32.603Z,36.90
2019-05-02T12:07:04.953Z,36.90
2019-05-02T12:09:36.119Z,36.80
2019-05-02T12:12:07.359Z,36.80
2019-05-02T12:14:38.540Z,36.80
2019-05-02T12:17:09.748Z,36.70
2019-05-02T12:19:42.598Z,36.70
2019-05-02T12:22:16.912Z,36.60
2019-05-02T12:24:48.023Z,36.50
2019-05-02T12:27:19.541Z,36.40
2019-05-02T12:29:57.768Z,36.20
2019-05-02T12:32:23.328Z,36.20
2019-05-02T12:34:54.646Z,36.10
2019-05-02T12:37:25.436Z,36.00
2019-05-02T12:39:57.510Z,35.80
2019-05-02T12:42:29.770Z,35.70
2019-05-02T12:45:02.726Z,35.70
2019-05-02T12:47:33.657Z,35.60
2019-05-02T12:50:04.909Z,35.50
2019-05-02T12:52:36.471Z,35.40
2019-05-02T12:55:09.137Z,35.30
2019-05-02T12:57:40.275Z,35.30
2019-05-02T13:00:12.845Z,35.20
2019-05-02T13:02:45.438Z,35.10
2019-05-02T13:05:18.305Z,35.10
2019-05-02T13:07:55.548Z,35.10
2019-05-02T13:10:28.265Z,35.10
2019-05-02T13:12:59.614Z,35.10
2019-05-02T13:15:32.854Z,35.10
2019-05-02T13:18:03.355Z,35.10
2019-05-02T13:20:37.153Z,35.10
2019-05-02T13:23:12.707Z,35.10
2019-05-02T13:25:43.323Z,35.10
2019-05-02T13:28:17.211Z,35.10
2019-05-02T13:30:48.520Z,35.00
2019-05-02T13:33:22.632Z,35.10
2019-05-02T13:35:55.222Z,35.00
2019-05-02T13:38:26.338Z,35.10
2019-05-02T13:40:57.847Z,35.10
2019-05-02T13:43:32.229Z,35.10
2019-05-02T13:46:04.410Z,35.10
2019-05-02T13:48:35.389Z,35.10
2019-05-02T13:51:06.416Z,35.10
2019-05-02T13:53:39.000Z,35.10
2019-05-02T13:56:12.969Z,35.10
2019-05-02T13:58:43.941Z,35.10
2019-05-02T14:01:15.610Z,35.10
2019-05-02T14:03:46.842Z,35.00
2019-05-02T14:06:21.994Z,35.00
2019-05-02T14:08:53.390Z,34.90
2019-05-02T14:11:26.227Z,34.90
2019-05-02T14:13:57.901Z,34.90
2019-05-02T14:16:28.712Z,34.80
2019-05-02T14:19:00.066Z,34.80
2019-05-02T14:21:32.217Z,34.80
2019-05-02T14:24:03.414Z,34.70
2019-05-02T14:26:34.559Z,34.70
2019-05-02T14:29:07.190Z,34.60
2019-05-02T14:31:38.617Z,34.50
2019-05-02T14:34:12.120Z,34.50
2019-05-02T14:36:44.348Z,34.50
2019-05-02T14:39:15.946Z,34.40
2019-05-02T14:41:46.962Z,34.40
2019-05-02T14:44:18.149Z,34.30
2019-05-02T14:46:52.153Z,34.30
2019-05-02T14:49:25.511Z,34.30
2019-05-02T14:51:57.266Z,34.20
2019-05-02T14:54:29.771Z,34.20
2019-05-02T14:57:02.334Z,34.10
2019-05-02T14:59:33.440Z,34.10
2019-05-02T15:02:07.722Z,34.10
2019-05-02T15:04:44.422Z,34.00
2019-05-02T15:07:12.951Z,34.10
2019-05-02T15:09:43.589Z,34.00
2019-05-02T15:12:18.564Z,34.00
2019-05-02T15:14:54.002Z,34.00
2019-05-02T15:17:22.751Z,33.90
2019-05-02T15:19:53.982Z,34.00
2019-05-02T15:22:27.538Z,33.90
2019-05-02T15:24:57.967Z,33.90
2019-05-02T15:27:40.147Z,33.90
2019-05-02T15:30:06.905Z,33.80
2019-05-02T15:32:37.178Z,33.90
2019-05-02T15:35:12.957Z,33.80
2019-05-02T15:37:43.904Z,33.80
2019-05-02T15:40:43.394Z,33.70
2019-05-02T15:42:52.146Z,33.70
2019-05-02T15:45:24.005Z,33.70
2019-05-02T15:47:55.103Z,33.70
2019-05-02T15:50:26.343Z,33.70
2019-05-02T15:53:03.138Z,33.60
2019-05-02T15:55:32.413Z,33.60
2019-05-02T15:58:03.963Z,33.60
2019-05-02T16:00:36.354Z,33.50
2019-05-02T16:03:07.654Z,33.50
2019-05-02T16:05:41.213Z,33.40
2019-05-02T16:08:12.537Z,33.40
2019-05-02T16:10:44.201Z,33.40
2019-05-02T16:13:17.222Z,33.30
2019-05-02T16:15:48.458Z,33.30
2019-05-02T16:18:21.499Z,33.30
2019-05-02T16:21:04.853Z,33.20
2019-05-02T16:23:32.692Z,33.20
2019-05-02T16:26:03.832Z,33.20
2019-05-02T16:28:32.422Z,33.20
2019-05-02T16:31:04.483Z,33.10
2019-05-02T16:33:35.402Z,33.10
2019-05-02T16:36:06.533Z,33.10
2019-05-02T16:38:37.493Z,33.00
2019-05-02T16:41:09.852Z,33.00
2019-05-02T16:43:41.931Z,33.00
2019-05-02T16:46:14.286Z,33.00
2019-05-02T16:48:45.531Z,33.00
2019-05-02T16:51:30.034Z,33.00
2019-05-02T16:53:49.297Z,33.00
2019-05-02T16:56:22.260Z,33.00
2019-05-02T16:58:53.506Z,33.00
2019-05-02T17:01:27.488Z,33.00
2019-05-02T17:03:57.684Z,32.90
2019-05-02T17:06:32.454Z,32.90
2019-05-02T17:09:04.691Z,32.90
2019-05-02T17:11:37.006Z,32.90
2019-05-02T17:14:11.936Z,32.90
2019-05-02T17:16:42.043Z,32.80
2019-05-02T17:19:13.386Z,32.90
2019-05-02T17:21:53.215Z,32.80
2019-05-02T17:24:17.415Z,32.80
2019-05-02T17:26:49.607Z,32.80
2019-05-02T17:29:21.392Z,32.80
2019-05-02T17:31:55.447Z,32.80
2019-05-02T17:34:30.704Z,32.80
2019-05-02T17:36:59.180Z,32.80
2019-05-02T17:39:30.977Z,32.80
2019-05-02T17:42:02.683Z,32.80
2019-05-02T17:44:33.578Z,32.80
2019-05-02T17:47:05.429Z,32.80
2019-05-02T17:49:36.859Z,32.80
2019-05-02T17:52:11.230Z,32.70
2019-05-02T17:54:42.368Z,32.70
2019-05-02T17:57:13.584Z,32.70
2019-05-02T17:59:44.651Z,32.70
2019-05-02T18:02:16.078Z,32.70
2019-05-02T18:04:52.162Z,32.70
2019-05-02T18:07:19.729Z,32.70
2019-05-02T18:09:52.431Z,32.70
2019-05-02T18:12:23.885Z,32.70
2019-05-02T18:14:58.934Z,32.60
2019-05-02T18:17:31.804Z,32.50
2019-05-02T18:20:05.943Z,32.50
2019-05-02T18:22:39.982Z,32.50
2019-05-02T18:25:08.690Z,32.50
2019-05-02T18:27:39.646Z,32.50
2019-05-02T18:30:12.781Z,32.50
2019-05-02T18:32:44.380Z,32.50
2019-05-02T18:35:17.021Z,32.40
2019-05-02T18:37:48.272Z,32.40
2019-05-02T18:40:20.148Z,32.40
2019-05-02T18:42:56.382Z,32.30
2019-05-02T18:45:28.575Z,32.30
2019-05-02T18:48:02.474Z,32.30
2019-05-02T18:50:36.755Z,32.20
2019-05-02T18:53:09.283Z,32.30
2019-05-02T18:55:42.160Z,32.20
2019-05-02T18:58:13.465Z,32.20
2019-05-02T19:00:44.528Z,32.20
2019-05-02T19:03:17.323Z,32.20
2019-05-02T19:05:51.681Z,32.20
2019-05-02T19:08:29.063Z,32.10
2019-05-02T19:11:04.378Z,32.10
2019-05-02T19:13:26.405Z,32.10
2019-05-02T19:15:57.598Z,32.10
2019-05-02T19:18:28.849Z,32.10
2019-05-02T19:21:03.020Z,32.00
2019-05-02T19:23:34.299Z,32.00
2019-05-02T19:26:10.097Z,32.00
2019-05-02T19:28:42.534Z,32.00
2019-05-02T19:31:13.708Z,32.00
2019-05-02T19:33:45.050Z,31.90
2019-05-02T19:36:21.329Z,31.90
2019-05-02T19:38:48.877Z,31.90
2019-05-02T19:41:20.062Z,31.90
2019-05-02T19:43:53.360Z,31.90
2019-05-02T19:46:31.673Z,31.80
2019-05-02T19:48:57.658Z,31.80
2019-05-02T19:51:28.730Z,31.80
2019-05-02T19:54:01.849Z,31.80
2019-05-02T19:56:43.211Z,31.70
2019-05-02T19:59:06.252Z,31.80
2019-05-02T20:01:37.389Z,31.70
2019-05-02T20:04:14.367Z,31.70
2019-05-02T20:06:45.976Z,31.60
2019-05-02T20:09:17.033Z,31.60
2019-05-02T20:11:48.004Z,31.60
2019-05-02T20:14:19.365Z,31.60
2019-05-02T20:16:53.071Z,31.50
2019-05-02T20:19:26.979Z,31.50
2019-05-02T20:22:02.903Z,31.50
2019-05-02T20:24:32.140Z,31.50
2019-05-02T20:27:03.972Z,31.50
2019-05-02T20:29:35.149Z,31.50
2019-05-02T20:32:06.189Z,31.50
2019-05-02T20:34:37.038Z,31.50
2019-05-02T20:37:09.587Z,31.50
2019-05-02T20:39:41.660Z,31.40
2019-05-02T20:42:12.965Z,31.40
2019-05-02T20:44:43.977Z,31.40
2019-05-02T20:47:17.789Z,31.30
2019-05-02T20:49:49.212Z,31.30
2019-05-02T20:55:16.121Z,31.30
2019-05-02T20:57:47.134Z,31.20
2019-05-02T21:00:23.887Z,31.20
2019-05-02T21:02:55.230Z,31.20
2019-05-02T21:05:28.757Z,31.20
2019-05-02T21:08:02.181Z,31.20
2019-05-02T21:10:35.857Z,31.10
2019-05-02T21:13:07.399Z,31.10
2019-05-02T21:15:38.657Z,31.10
2019-05-02T21:18:11.683Z,31.10
2019-05-02T21:20:42.953Z,31.10
2019-05-02T21:23:14.201Z,31.10
2019-05-02T21:25:45.879Z,31.10
2019-05-02T21:28:17.121Z,31.00
2019-05-02T21:30:48.313Z,31.00
2019-05-02T21:33:22.428Z,31.00
2019-05-02T21:35:53.576Z,31.00
2019-05-02T21:38:24.636Z,31.00
2019-05-02T21:40:56.049Z,31.00
2019-05-02T21:43:28.351Z,31.00
2019-05-02T21:45:59.690Z,31.00
2019-05-02T21:48:32.640Z,30.90
2019-05-02T21:51:05.365Z,30.90
2019-05-02T21:53:38.556Z,30.90
2019-05-02T21:56:09.552Z,30.90
2019-05-02T21:58:42.764Z,30.90
2019-05-02T22:01:15.375Z,30.90
2019-05-02T22:03:46.795Z,30.80
2019-05-02T22:06:18.183Z,30.70
2019-05-02T22:08:49.119Z,30.70
2019-05-02T22:11:20.125Z,30.70
2019-05-02T22:13:51.783Z,30.60
2019-05-02T22:16:22.986Z,30.60
2019-05-02T22:18:53.958Z,30.60
2019-05-02T22:21:25.139Z,30.60
2019-05-02T22:24:07.837Z,30.50
2019-05-02T22:26:28.804Z,30.50
2019-05-02T22:29:02.982Z,30.50
2019-05-02T22:31:34.079Z,30.50
2019-05-02T22:34:05.300Z,30.60
2019-05-02T22:36:36.335Z,30.60
2019-05-02T22:39:12.564Z,30.60
2019-05-02T22:41:43.162Z,30.60
2019-05-02T22:44:14.379Z,30.60
2019-05-02T22:46:45.726Z,30.50
2019-05-02T22:49:17.280Z,30.50
2019-05-02T22:51:48.475Z,30.50
2019-05-02T22:54:29.592Z,30.50
2019-05-02T22:56:52.214Z,30.50
2019-05-02T22:59:26.096Z,30.50
2019-05-02T23:01:58.007Z,30.50
2019-05-02T23:04:29.262Z,30.50
2019-05-02T23:07:02.347Z,30.50
2019-05-02T23:09:34.585Z,30.50
2019-05-02T23:12:05.925Z,30.50
2019-05-02T23:14:36.997Z,30.50
2019-05-02T23:17:08.156Z,30.50
2019-05-02T23:19:39.466Z,30.50
2019-05-02T23:22:12.502Z,30.50
2019-05-02T23:24:44.629Z,30.50
2019-05-02T23:27:15.763Z,30.50
2019-05-02T23:29:46.589Z,30.50
2019-05-02T23:32:17.783Z,30.50
2019-05-02T23:34:49.100Z,30.50
2019-05-02T23:37:20.244Z,30.50
2019-05-02T23:39:52.277Z,30.50
2019-05-02T23:42:23.554Z,30.50
2019-05-02T23:44:54.670Z,30.50
2019-05-02T23:47:25.870Z,30.50
2019-05-02T23:49:59.745Z,30.50
2019-05-02T23:52:31.596Z,30.60
2019-05-02T23:55:03.058Z,30.60
2019-05-02T23:57:35.521Z,30.60
